sensor_id;sensor_type;location;lat;lon;timestamp;pressure;altitude;pressure_sealevel;temperature;humidity
4617;BME280;2321;42.704;23.384;2023-04-27T00:00:43;95130.78;;;8.90;nan
4617;BME280;2321;42.704;23.384;2023-04-27T00:03:10;95134.84;;;8.86;nan
4617;BME280;2321;42.704;23.384;2023-04-27T00:05:37;95132.19;;;8.86;nan
4617;BME280;2321;42.704;23.384;2023-04-27T00:08:05;95133.13;;;8.78;nan
4617;BME280;2321;42.704;23.384;2023-04-27T00:10:32;95140.38;;;8.69;nan
4617;BME280;2321;42.704;23.384;2023-04-27T00:12:59;95139.09;;;8.65;nan
4617;BME280;2321;42.704;23.384;2023-04-27T00:15:27;95138.66;;;8.62;nan
4617;BME280;2321;42.704;23.384;2023-04-27T00:17:55;95138.00;;;8.59;nan
4617;BME280;2321;42.704;23.384;2023-04-27T00:20:22;95144.69;;;8.55;nan
4617;BME280;2321;42.704;23.384;2023-04-27T00:22:49;95162.13;;;8.49;nan
4617;BME280;2321;42.704;23.384;2023-04-27T00:25:16;95146.16;;;8.43;nan
4617;BME280;2321;42.704;23.384;2023-04-27T00:27:43;95159.59;;;8.41;nan
4617;BME280;2321;42.704;23.384;2023-04-27T00:30:10;95137.03;;;8.30;nan
4617;BME280;2321;42.704;23.384;2023-04-27T00:32:38;95152.94;;;8.30;nan
4617;BME280;2321;42.704;23.384;2023-04-27T00:35:07;95155.94;;;8.27;nan
4617;BME280;2321;42.704;23.384;2023-04-27T00:37:34;95152.84;;;8.23;nan
4617;BME280;2321;42.704;23.384;2023-04-27T00:40:03;95158.69;;;8.19;nan
4617;BME280;2321;42.704;23.384;2023-04-27T00:42:31;95155.75;;;8.13;nan
4617;BME280;2321;42.704;23.384;2023-04-27T00:44:58;95155.28;;;8.10;nan
4617;BME280;2321;42.704;23.384;2023-04-27T00:47:25;95155.03;;;8.04;nan
4617;BME280;2321;42.704;23.384;2023-04-27T00:49:53;95162.00;;;8.05;nan
4617;BME280;2321;42.704;23.384;2023-04-27T00:52:21;95159.50;;;8.04;nan
4617;BME280;2321;42.704;23.384;2023-04-27T00:54:49;95160.31;;;8.04;nan
4617;BME280;2321;42.704;23.384;2023-04-27T00:57:17;95163.91;;;7.97;nan
4617;BME280;2321;42.704;23.384;2023-04-27T00:59:44;95161.78;;;7.92;nan
4617;BME280;2321;42.704;23.384;2023-04-27T01:02:11;95161.50;;;7.87;nan
4617;BME280;2321;42.704;23.384;2023-04-27T01:04:38;95167.16;;;7.83;nan
4617;BME280;2321;42.704;23.384;2023-04-27T01:07:06;95163.69;;;7.83;nan
4617;BME280;2321;42.704;23.384;2023-04-27T01:09:33;95167.25;;;7.75;nan
4617;BME280;2321;42.704;23.384;2023-04-27T01:12:01;95169.25;;;7.73;nan
4617;BME280;2321;42.704;23.384;2023-04-27T01:14:28;95173.28;;;7.69;nan
4617;BME280;2321;42.704;23.384;2023-04-27T01:16:55;95173.63;;;7.66;nan
4617;BME280;2321;42.704;23.384;2023-04-27T01:19:21;95166.19;;;7.61;nan
4617;BME280;2321;42.704;23.384;2023-04-27T01:21:48;95165.75;;;7.57;nan
4617;BME280;2321;42.704;23.384;2023-04-27T01:24:16;95167.47;;;7.50;nan
4617;BME280;2321;42.704;23.384;2023-04-27T01:26:43;95167.28;;;7.51;nan
4617;BME280;2321;42.704;23.384;2023-04-27T01:29:10;95177.06;;;7.51;nan
4617;BME280;2321;42.704;23.384;2023-04-27T01:31:37;95179.88;;;7.49;nan
4617;BME280;2321;42.704;23.384;2023-04-27T01:34:04;95170.94;;;7.50;nan
4617;BME280;2321;42.704;23.384;2023-04-27T01:36:31;95177.72;;;7.53;nan
4617;BME280;2321;42.704;23.384;2023-04-27T01:38:58;95184.81;;;7.52;nan
4617;BME280;2321;42.704;23.384;2023-04-27T01:41:26;95182.81;;;7.55;nan
4617;BME280;2321;42.704;23.384;2023-04-27T01:43:53;95190.75;;;7.55;nan
4617;BME280;2321;42.704;23.384;2023-04-27T01:46:19;95189.13;;;7.54;nan
4617;BME280;2321;42.704;23.384;2023-04-27T01:48:46;95187.31;;;7.54;nan
4617;BME280;2321;42.704;23.384;2023-04-27T01:51:13;95161.94;;;7.36;nan
4617;BME280;2321;42.704;23.384;2023-04-27T01:53:40;95195.50;;;7.44;nan
4617;BME280;2321;42.704;23.384;2023-04-27T01:56:07;95196.47;;;7.43;nan
4617;BME280;2321;42.704;23.384;2023-04-27T01:58:36;95193.19;;;7.41;nan
4617;BME280;2321;42.704;23.384;2023-04-27T02:01:02;95192.91;;;7.36;nan
4617;BME280;2321;42.704;23.384;2023-04-27T02:03:29;95192.44;;;7.32;nan
4617;BME280;2321;42.704;23.384;2023-04-27T02:05:56;95194.59;;;7.28;nan
4617;BME280;2321;42.704;23.384;2023-04-27T02:08:23;95187.66;;;7.27;nan
4617;BME280;2321;42.704;23.384;2023-04-27T02:10:50;95188.84;;;7.25;nan
4617;BME280;2321;42.704;23.384;2023-04-27T02:13:17;95191.47;;;7.25;nan
4617;BME280;2321;42.704;23.384;2023-04-27T02:15:45;95192.03;;;7.20;nan
4617;BME280;2321;42.704;23.384;2023-04-27T02:18:12;95188.06;;;7.16;nan
4617;BME280;2321;42.704;23.384;2023-04-27T02:20:40;95191.34;;;7.18;nan
4617;BME280;2321;42.704;23.384;2023-04-27T02:23:07;95191.53;;;7.16;nan
4617;BME280;2321;42.704;23.384;2023-04-27T02:25:35;95196.84;;;7.16;nan
4617;BME280;2321;42.704;23.384;2023-04-27T02:28:02;95197.84;;;7.15;nan
4617;BME280;2321;42.704;23.384;2023-04-27T02:30:29;95197.19;;;7.13;nan
4617;BME280;2321;42.704;23.384;2023-04-27T02:32:58;95207.94;;;7.12;nan
4617;BME280;2321;42.704;23.384;2023-04-27T02:35:25;95196.56;;;7.11;nan
4617;BME280;2321;42.704;23.384;2023-04-27T02:37:52;95203.19;;;7.07;nan
4617;BME280;2321;42.704;23.384;2023-04-27T02:40:19;95198.25;;;7.04;nan
4617;BME280;2321;42.704;23.384;2023-04-27T02:42:46;95198.25;;;7.04;nan
4617;BME280;2321;42.704;23.384;2023-04-27T02:45:12;95199.06;;;7.04;nan
4617;BME280;2321;42.704;23.384;2023-04-27T02:47:39;95206.19;;;7.04;nan
4617;BME280;2321;42.704;23.384;2023-04-27T02:50:09;95209.81;;;7.03;nan
4617;BME280;2321;42.704;23.384;2023-04-27T02:52:35;95209.81;;;7.03;nan
4617;BME280;2321;42.704;23.384;2023-04-27T02:55:02;95212.47;;;7.03;nan
4617;BME280;2321;42.704;23.384;2023-04-27T02:57:29;95209.81;;;7.03;nan
4617;BME280;2321;42.704;23.384;2023-04-27T02:59:56;95205.69;;;7.00;nan
4617;BME280;2321;42.704;23.384;2023-04-27T03:02:23;95215.66;;;6.98;nan
4617;BME280;2321;42.704;23.384;2023-04-27T03:04:53;95216.81;;;6.95;nan
4617;BME280;2321;42.704;23.384;2023-04-27T03:07:22;95223.28;;;6.93;nan
4617;BME280;2321;42.704;23.384;2023-04-27T03:09:49;95216.03;;;6.86;nan
4617;BME280;2321;42.704;23.384;2023-04-27T03:12:15;95222.31;;;6.85;nan
4617;BME280;2321;42.704;23.384;2023-04-27T03:14:42;95225.66;;;6.79;nan
4617;BME280;2321;42.704;23.384;2023-04-27T03:17:09;95226.84;;;6.77;nan
4617;BME280;2321;42.704;23.384;2023-04-27T03:19:36;95227.81;;;6.75;nan
4617;BME280;2321;42.704;23.384;2023-04-27T03:22:03;95235.13;;;6.73;nan
4617;BME280;2321;42.704;23.384;2023-04-27T03:24:31;95229.97;;;6.72;nan
4617;BME280;2321;42.704;23.384;2023-04-27T03:26:58;95231.81;;;6.71;nan
4617;BME280;2321;42.704;23.384;2023-04-27T03:29:26;95234.13;;;6.74;nan
4617;BME280;2321;42.704;23.384;2023-04-27T03:31:53;95231.16;;;6.69;nan
4617;BME280;2321;42.704;23.384;2023-04-27T03:34:20;95240.44;;;6.65;nan
4617;BME280;2321;42.704;23.384;2023-04-27T03:36:47;95241.59;;;6.62;nan
4617;BME280;2321;42.704;23.384;2023-04-27T03:39:15;95244.59;;;6.59;nan
4617;BME280;2321;42.704;23.384;2023-04-27T03:41:43;95242.75;;;6.60;nan
4617;BME280;2321;42.704;23.384;2023-04-27T03:44:10;95247.06;;;6.61;nan
4617;BME280;2321;42.704;23.384;2023-04-27T03:46:37;95247.75;;;6.54;nan
4617;BME280;2321;42.704;23.384;2023-04-27T03:49:04;95252.22;;;6.54;nan
4617;BME280;2321;42.704;23.384;2023-04-27T03:51:31;95242.47;;;6.54;nan
4617;BME280;2321;42.704;23.384;2023-04-27T03:53:58;95251.72;;;6.50;nan
4617;BME280;2321;42.704;23.384;2023-04-27T03:56:25;95254.69;;;6.56;nan
4617;BME280;2321;42.704;23.384;2023-04-27T03:58:53;95259.31;;;6.62;nan
4617;BME280;2321;42.704;23.384;2023-04-27T04:01:20;95270.22;;;6.59;nan
4617;BME280;2321;42.704;23.384;2023-04-27T04:03:47;95270.22;;;6.59;nan
4617;BME280;2321;42.704;23.384;2023-04-27T04:06:15;95270.03;;;6.60;nan
4617;BME280;2321;42.704;23.384;2023-04-27T04:08:41;95273.03;;;6.57;nan
4617;BME280;2321;42.704;23.384;2023-04-27T04:11:08;95281.78;;;6.58;nan
4617;BME280;2321;42.704;23.384;2023-04-27T04:13:35;95278.31;;;6.57;nan
4617;BME280;2321;42.704;23.384;2023-04-27T04:16:04;95291.72;;;6.56;nan
4617;BME280;2321;42.704;23.384;2023-04-27T04:18:32;95288.56;;;6.60;nan
4617;BME280;2321;42.704;23.384;2023-04-27T04:20:59;95295.66;;;6.60;nan
4617;BME280;2321;42.704;23.384;2023-04-27T04:23:25;95296.84;;;6.57;nan
4617;BME280;2321;42.704;23.384;2023-04-27T04:25:52;95301.63;;;6.62;nan
4617;BME280;2321;42.704;23.384;2023-04-27T04:28:20;95301.16;;;6.58;nan
4617;BME280;2321;42.704;23.384;2023-04-27T04:30:48;95300.66;;;6.54;nan
4617;BME280;2321;42.704;23.384;2023-04-27T04:33:16;95312.22;;;6.53;nan
4617;BME280;2321;42.704;23.384;2023-04-27T04:35:44;95308.44;;;6.56;nan
4617;BME280;2321;42.704;23.384;2023-04-27T04:38:11;95314.53;;;6.57;nan
4617;BME280;2321;42.704;23.384;2023-04-27T04:40:38;95308.44;;;6.56;nan
4617;BME280;2321;42.704;23.384;2023-04-27T04:43:05;95319.81;;;6.57;nan
4617;BME280;2321;42.704;23.384;2023-04-27T04:45:32;95315.50;;;6.64;nan
4617;BME280;2321;42.704;23.384;2023-04-27T04:47:59;95312.38;;;6.60;nan
4617;BME280;2321;42.704;23.384;2023-04-27T04:50:28;95318.50;;;6.61;nan
4617;BME280;2321;42.704;23.384;2023-04-27T04:52:54;95325.13;;;6.65;nan
4617;BME280;2321;42.704;23.384;2023-04-27T04:55:22;95271.47;;;6.31;nan
4617;BME280;2321;42.704;23.384;2023-04-27T04:57:48;95331.84;;;6.76;nan
4617;BME280;2321;42.704;23.384;2023-04-27T05:00:16;95335.00;;;6.80;nan
4617;BME280;2321;42.704;23.384;2023-04-27T05:02:42;95335.94;;;6.87;nan
4617;BME280;2321;42.704;23.384;2023-04-27T05:05:09;95347.81;;;7.00;nan
4617;BME280;2321;42.704;23.384;2023-04-27T05:07:37;95351.44;;;7.07;nan
4617;BME280;2321;42.704;23.384;2023-04-27T05:10:05;95346.59;;;7.19;nan
4617;BME280;2321;42.704;23.384;2023-04-27T05:12:32;95345.28;;;7.23;nan
4617;BME280;2321;42.704;23.384;2023-04-27T05:14:59;95346.06;;;7.32;nan
4617;BME280;2321;42.704;23.384;2023-04-27T05:17:26;95344.19;;;7.41;nan
4617;BME280;2321;42.704;23.384;2023-04-27T05:19:53;95348.66;;;7.40;nan
4617;BME280;2321;42.704;23.384;2023-04-27T05:22:20;95348.44;;;7.50;nan
4617;BME280;2321;42.704;23.384;2023-04-27T05:24:48;95361.00;;;7.57;nan
4617;BME280;2321;42.704;23.384;2023-04-27T05:27:15;95349.28;;;7.51;nan
4617;BME280;2321;42.704;23.384;2023-04-27T05:29:42;95355.56;;;7.50;nan
4617;BME280;2321;42.704;23.384;2023-04-27T05:32:08;95356.38;;;7.50;nan
4617;BME280;2321;42.704;23.384;2023-04-27T05:34:35;95362.53;;;7.51;nan
4617;BME280;2321;42.704;23.384;2023-04-27T05:37:02;95360.88;;;7.50;nan
4617;BME280;2321;42.704;23.384;2023-04-27T05:39:29;95358.38;;;7.48;nan
4617;BME280;2321;42.704;23.384;2023-04-27T05:41:57;95357.88;;;7.53;nan
4617;BME280;2321;42.704;23.384;2023-04-27T05:44:24;95365.94;;;7.60;nan
4617;BME280;2321;42.704;23.384;2023-04-27T05:46:53;95368.53;;;7.68;nan
4617;BME280;2321;42.704;23.384;2023-04-27T05:49:21;95364.56;;;7.72;nan
4617;BME280;2321;42.704;23.384;2023-04-27T05:51:48;95367.03;;;7.74;nan
4617;BME280;2321;42.704;23.384;2023-04-27T05:54:16;95362.34;;;7.76;nan
4617;BME280;2321;42.704;23.384;2023-04-27T05:56:43;95359.06;;;7.74;nan
4617;BME280;2321;42.704;23.384;2023-04-27T05:59:11;95369.97;;;7.79;nan
4617;BME280;2321;42.704;23.384;2023-04-27T06:01:38;95365.97;;;7.83;nan
4617;BME280;2321;42.704;23.384;2023-04-27T06:04:04;95364.28;;;7.91;nan
4617;BME280;2321;42.704;23.384;2023-04-27T06:06:31;95364.84;;;8.01;nan
4617;BME280;2321;42.704;23.384;2023-04-27T06:08:58;95373.09;;;8.06;nan
4617;BME280;2321;42.704;23.384;2023-04-27T06:11:25;95366.91;;;8.14;nan
4617;BME280;2321;42.704;23.384;2023-04-27T06:13:52;95370.81;;;8.27;nan
4617;BME280;2321;42.704;23.384;2023-04-27T06:16:21;95374.03;;;8.37;nan
4617;BME280;2321;42.704;23.384;2023-04-27T06:18:48;95372.50;;;8.43;nan
4617;BME280;2321;42.704;23.384;2023-04-27T06:21:15;95366.28;;;8.51;nan
4617;BME280;2321;42.704;23.384;2023-04-27T06:23:42;95354.75;;;8.59;nan
4617;BME280;2321;42.704;23.384;2023-04-27T06:26:09;95366.25;;;8.75;nan
4617;BME280;2321;42.704;23.384;2023-04-27T06:28:36;95365.38;;;8.98;nan
4617;BME280;2321;42.704;23.384;2023-04-27T06:31:03;95367.56;;;9.09;nan
4617;BME280;2321;42.704;23.384;2023-04-27T06:33:32;95353.72;;;9.14;nan
4617;BME280;2321;42.704;23.384;2023-04-27T06:35:59;95357.13;;;9.23;nan
4617;BME280;2321;42.704;23.384;2023-04-27T06:38:27;95360.69;;;9.30;nan
4617;BME280;2321;42.704;23.384;2023-04-27T06:40:53;95363.88;;;9.41;nan
4617;BME280;2321;42.704;23.384;2023-04-27T06:43:22;95358.00;;;9.45;nan
4617;BME280;2321;42.704;23.384;2023-04-27T06:45:49;95360.75;;;9.52;nan
4617;BME280;2321;42.704;23.384;2023-04-27T06:48:16;95358.34;;;9.57;nan
4617;BME280;2321;42.704;23.384;2023-04-27T06:50:44;95357.22;;;9.67;nan
4617;BME280;2321;42.704;23.384;2023-04-27T06:53:11;95354.34;;;9.84;nan
4617;BME280;2321;42.704;23.384;2023-04-27T06:55:38;95347.91;;;9.93;nan
4617;BME280;2321;42.704;23.384;2023-04-27T06:58:05;95353.09;;;10.01;nan
4617;BME280;2321;42.704;23.384;2023-04-27T07:00:32;95348.75;;;10.00;nan
4617;BME280;2321;42.704;23.384;2023-04-27T07:02:59;95339.03;;;10.08;nan
4617;BME280;2321;42.704;23.384;2023-04-27T07:05:26;95340.53;;;10.17;nan
4617;BME280;2321;42.704;23.384;2023-04-27T07:07:55;95343.13;;;10.32;nan
4617;BME280;2321;42.704;23.384;2023-04-27T07:10:22;95348.13;;;10.42;nan
4617;BME280;2321;42.704;23.384;2023-04-27T07:12:48;95342.75;;;10.35;nan
4617;BME280;2321;42.704;23.384;2023-04-27T07:15:15;95342.69;;;10.29;nan
4617;BME280;2321;42.704;23.384;2023-04-27T07:17:42;95341.84;;;10.28;nan
4617;BME280;2321;42.704;23.384;2023-04-27T07:20:09;95341.31;;;10.40;nan
4617;BME280;2321;42.704;23.384;2023-04-27T07:22:38;95344.13;;;10.53;nan
4617;BME280;2321;42.704;23.384;2023-04-27T07:25:07;95332.78;;;10.66;nan
4617;BME280;2321;42.704;23.384;2023-04-27T07:27:34;95333.88;;;10.79;nan
4617;BME280;2321;42.704;23.384;2023-04-27T07:30:01;95336.94;;;10.76;nan
4617;BME280;2321;42.704;23.384;2023-04-27T07:32:29;95335.75;;;10.85;nan
4617;BME280;2321;42.704;23.384;2023-04-27T07:34:56;95339.88;;;10.88;nan
4617;BME280;2321;42.704;23.384;2023-04-27T07:37:23;95340.06;;;10.86;nan
4617;BME280;2321;42.704;23.384;2023-04-27T07:39:51;95333.72;;;10.87;nan
4617;BME280;2321;42.704;23.384;2023-04-27T07:42:20;95339.88;;;10.95;nan
4617;BME280;2321;42.704;23.384;2023-04-27T07:44:47;95337.66;;;10.98;nan
4617;BME280;2321;42.704;23.384;2023-04-27T07:47:15;95344.81;;;10.98;nan
4617;BME280;2321;42.704;23.384;2023-04-27T07:49:43;95339.44;;;10.84;nan
4617;BME280;2321;42.704;23.384;2023-04-27T07:52:11;95342.09;;;10.84;nan
4617;BME280;2321;42.704;23.384;2023-04-27T07:54:38;95337.34;;;10.79;nan
4617;BME280;2321;42.704;23.384;2023-04-27T07:57:07;95335.38;;;10.88;nan
4617;BME280;2321;42.704;23.384;2023-04-27T07:59:36;95317.78;;;10.94;nan
4617;BME280;2321;42.704;23.384;2023-04-27T08:02:03;95333.69;;;11.23;nan
4617;BME280;2321;42.704;23.384;2023-04-27T08:04:30;95330.69;;;11.40;nan
4617;BME280;2321;42.704;23.384;2023-04-27T08:06:57;95329.50;;;11.56;nan
4617;BME280;2321;42.704;23.384;2023-04-27T08:09:23;95330.81;;;11.74;nan
4617;BME280;2321;42.704;23.384;2023-04-27T08:11:51;95333.09;;;11.91;nan
4617;BME280;2321;42.704;23.384;2023-04-27T08:14:18;95337.84;;;11.95;nan
4617;BME280;2321;42.704;23.384;2023-04-27T08:16:46;95342.34;;;11.95;nan
4617;BME280;2321;42.704;23.384;2023-04-27T08:19:13;95346.88;;;12.01;nan
4617;BME280;2321;42.704;23.384;2023-04-27T08:21:40;95333.31;;;12.03;nan
4617;BME280;2321;42.704;23.384;2023-04-27T08:24:07;95328.19;;;12.01;nan
4617;BME280;2321;42.704;23.384;2023-04-27T08:26:34;95329.88;;;12.16;nan
4617;BME280;2321;42.704;23.384;2023-04-27T08:29:01;95337.41;;;12.05;nan
4617;BME280;2321;42.704;23.384;2023-04-27T08:31:28;95329.66;;;12.11;nan
4617;BME280;2321;42.704;23.384;2023-04-27T08:33:56;95344.47;;;12.20;nan
4617;BME280;2321;42.704;23.384;2023-04-27T08:36:24;95328.03;;;12.16;nan
4617;BME280;2321;42.704;23.384;2023-04-27T08:38:52;95335.22;;;12.23;nan
4617;BME280;2321;42.704;23.384;2023-04-27T08:41:19;95334.59;;;12.27;nan
4617;BME280;2321;42.704;23.384;2023-04-27T08:43:47;95334.59;;;12.27;nan
4617;BME280;2321;42.704;23.384;2023-04-27T08:46:17;95332.56;;;12.36;nan
4617;BME280;2321;42.704;23.384;2023-04-27T08:48:45;95331.13;;;12.47;nan
4617;BME280;2321;42.704;23.384;2023-04-27T08:51:14;95342.22;;;12.51;nan
4617;BME280;2321;42.704;23.384;2023-04-27T08:53:47;95345.09;;;12.49;nan
4617;BME280;2321;42.704;23.384;2023-04-27T08:56:14;95334.41;;;12.42;nan
4617;BME280;2321;42.704;23.384;2023-04-27T08:58:41;95335.25;;;12.50;nan
4617;BME280;2321;42.704;23.384;2023-04-27T09:01:08;95334.00;;;12.52;nan
4617;BME280;2321;42.704;23.384;2023-04-27T09:03:36;95339.97;;;12.48;nan
4617;BME280;2321;42.704;23.384;2023-04-27T09:06:04;95332.97;;;12.47;nan
4617;BME280;2321;42.704;23.384;2023-04-27T09:08:43;95335.84;;;12.52;nan
4617;BME280;2321;42.704;23.384;2023-04-27T09:11:11;95331.72;;;12.42;nan
4617;BME280;2321;42.704;23.384;2023-04-27T09:13:39;95321.88;;;12.36;nan
4617;BME280;2321;42.704;23.384;2023-04-27T09:16:07;95316.75;;;12.41;nan
4617;BME280;2321;42.704;23.384;2023-04-27T09:18:35;95329.69;;;12.65;nan
4617;BME280;2321;42.704;23.384;2023-04-27T09:21:03;95320.84;;;12.71;nan
4617;BME280;2321;42.704;23.384;2023-04-27T09:23:33;95322.28;;;12.60;nan
4617;BME280;2321;42.704;23.384;2023-04-27T09:26:03;95328.84;;;12.58;nan
4617;BME280;2321;42.704;23.384;2023-04-27T09:28:33;95322.72;;;12.50;nan
4617;BME280;2321;42.704;23.384;2023-04-27T09:31:01;95320.22;;;12.42;nan
4617;BME280;2321;42.704;23.384;2023-04-27T09:33:30;95319.41;;;12.55;nan
4617;BME280;2321;42.704;23.384;2023-04-27T09:35:58;95314.06;;;12.76;nan
4617;BME280;2321;42.704;23.384;2023-04-27T09:38:25;95302.31;;;12.83;nan
4617;BME280;2321;42.704;23.384;2023-04-27T09:40:53;95303.16;;;12.84;nan
4617;BME280;2321;42.704;23.384;2023-04-27T09:43:22;95304.34;;;12.88;nan
4617;BME280;2321;42.704;23.384;2023-04-27T09:45:50;95310.34;;;12.83;nan
4617;BME280;2321;42.704;23.384;2023-04-27T09:48:17;95306.66;;;12.71;nan
4617;BME280;2321;42.704;23.384;2023-04-27T09:50:44;95303.78;;;12.66;nan
4617;BME280;2321;42.704;23.384;2023-04-27T09:53:14;95296.38;;;12.68;nan
4617;BME280;2321;42.704;23.384;2023-04-27T09:55:46;95301.72;;;12.68;nan
4617;BME280;2321;42.704;23.384;2023-04-27T09:58:35;95298.03;;;12.62;nan
4617;BME280;2321;42.704;23.384;2023-04-27T10:01:13;95295.19;;;12.57;nan
4617;BME280;2321;42.704;23.384;2023-04-27T10:06:51;95292.28;;;12.51;nan
4617;BME280;2321;42.704;23.384;2023-04-27T10:09:19;95295.19;;;12.50;nan
4617;BME280;2321;42.704;23.384;2023-04-27T10:11:48;95287.16;;;12.57;nan
4617;BME280;2321;42.704;23.384;2023-04-27T10:14:18;95284.47;;;12.70;nan
4617;BME280;2321;42.704;23.384;2023-04-27T10:16:49;95286.69;;;12.87;nan
4617;BME280;2321;42.704;23.384;2023-04-27T10:19:16;95300.47;;;12.84;nan
4617;BME280;2321;42.704;23.384;2023-04-27T10:21:54;95291.81;;;12.89;nan
4617;BME280;2321;42.704;23.384;2023-04-27T10:24:34;95298.81;;;12.90;nan
4617;BME280;2321;42.704;23.384;2023-04-27T10:27:03;95294.72;;;12.94;nan
4617;BME280;2321;42.704;23.384;2023-04-27T10:29:39;95297.56;;;12.99;nan
4617;BME280;2321;42.704;23.384;2023-04-27T10:32:07;95304.09;;;13.03;nan
4617;BME280;2321;42.704;23.384;2023-04-27T10:34:35;95295.91;;;13.05;nan
4617;BME280;2321;42.704;23.384;2023-04-27T10:37:07;95292.97;;;13.20;nan
4617;BME280;2321;42.704;23.384;2023-04-27T10:39:36;95283.28;;;13.26;nan
4617;BME280;2321;42.704;23.384;2023-04-27T10:42:03;95289.19;;;13.35;nan
4617;BME280;2321;42.704;23.384;2023-04-27T10:44:32;95283.44;;;13.38;nan
4617;BME280;2321;42.704;23.384;2023-04-27T10:47:11;95292.06;;;13.40;nan
4617;BME280;2321;42.704;23.384;2023-04-27T10:49:38;95285.13;;;13.25;nan
4617;BME280;2321;42.704;23.384;2023-04-27T10:52:05;95287.63;;;13.13;nan
4617;BME280;2321;42.704;23.384;2023-04-27T10:54:33;95289.47;;;13.20;nan
4617;BME280;2321;42.704;23.384;2023-04-27T10:57:04;95281.84;;;13.23;nan
4617;BME280;2321;42.704;23.384;2023-04-27T10:59:32;95292.72;;;13.28;nan
4617;BME280;2321;42.704;23.384;2023-04-27T11:02:01;95292.13;;;13.26;nan
4617;BME280;2321;42.704;23.384;2023-04-27T11:04:36;95286.19;;;13.24;nan
4617;BME280;2321;42.704;23.384;2023-04-27T11:07:05;95281.00;;;13.29;nan
4617;BME280;2321;42.704;23.384;2023-04-27T11:09:33;95286.31;;;13.36;nan
4617;BME280;2321;42.704;23.384;2023-04-27T11:12:01;95278.31;;;13.36;nan
4617;BME280;2321;42.704;23.384;2023-04-27T11:14:28;95280.56;;;13.39;nan
4617;BME280;2321;42.704;23.384;2023-04-27T11:16:55;95284.25;;;13.38;nan
4617;BME280;2321;42.704;23.384;2023-04-27T11:19:23;95292.28;;;13.32;nan
4617;BME280;2321;42.704;23.384;2023-04-27T11:21:50;95289.84;;;13.30;nan
4617;BME280;2321;42.704;23.384;2023-04-27T11:24:17;95285.94;;;13.26;nan
4617;BME280;2321;42.704;23.384;2023-04-27T11:26:50;95292.09;;;13.33;nan
4617;BME280;2321;42.704;23.384;2023-04-27T11:29:18;95287.94;;;13.37;nan
4617;BME280;2321;42.704;23.384;2023-04-27T11:31:46;95290.88;;;13.29;nan
4617;BME280;2321;42.704;23.384;2023-04-27T11:34:15;95294.16;;;13.31;nan
4617;BME280;2321;42.704;23.384;2023-04-27T11:36:43;95294.28;;;13.43;nan
4617;BME280;2321;42.704;23.384;2023-04-27T11:39:15;95293.00;;;13.66;nan
4617;BME280;2321;42.704;23.384;2023-04-27T11:41:44;95298.91;;;13.75;nan
4617;BME280;2321;42.704;23.384;2023-04-27T11:44:11;95300.56;;;13.76;nan
4617;BME280;2321;42.704;23.384;2023-04-27T11:46:38;95296.03;;;13.77;nan
4617;BME280;2321;42.704;23.384;2023-04-27T11:49:09;95298.09;;;13.75;nan
4617;BME280;2321;42.704;23.384;2023-04-27T11:51:36;95297.91;;;13.69;nan
4617;BME280;2321;42.704;23.384;2023-04-27T11:54:08;95295.69;;;13.59;nan
4617;BME280;2321;42.704;23.384;2023-04-27T11:56:36;95298.00;;;13.49;nan
4617;BME280;2321;42.704;23.384;2023-04-27T11:59:04;95297.59;;;13.45;nan
4617;BME280;2321;42.704;23.384;2023-04-27T12:01:32;95300.88;;;13.47;nan
4617;BME280;2321;42.704;23.384;2023-04-27T12:03:59;95289.75;;;13.50;nan
4617;BME280;2321;42.704;23.384;2023-04-27T12:06:27;95304.13;;;13.56;nan
4617;BME280;2321;42.704;23.384;2023-04-27T12:08:55;95307.44;;;13.58;nan
4617;BME280;2321;42.704;23.384;2023-04-27T12:11:25;95301.88;;;13.60;nan
4617;BME280;2321;42.704;23.384;2023-04-27T12:13:52;95298.53;;;13.65;nan
4617;BME280;2321;42.704;23.384;2023-04-27T12:16:19;95301.38;;;13.77;nan
4617;BME280;2321;42.704;23.384;2023-04-27T12:18:46;95305.81;;;13.90;nan
4617;BME280;2321;42.704;23.384;2023-04-27T12:21:14;95299.22;;;13.92;nan
4617;BME280;2321;42.704;23.384;2023-04-27T12:23:41;95303.97;;;13.90;nan
4617;BME280;2321;42.704;23.384;2023-04-27T12:26:08;95280.22;;;13.68;nan
4617;BME280;2321;42.704;23.384;2023-04-27T12:28:37;95306.34;;;13.73;nan
4617;BME280;2321;42.704;23.384;2023-04-27T12:31:04;95305.34;;;13.67;nan
4617;BME280;2321;42.704;23.384;2023-04-27T12:33:31;95308.22;;;13.66;nan
4617;BME280;2321;42.704;23.384;2023-04-27T12:35:58;95298.38;;;13.59;nan
4617;BME280;2321;42.704;23.384;2023-04-27T12:38:26;95304.34;;;13.61;nan
4617;BME280;2321;42.704;23.384;2023-04-27T12:40:52;95306.38;;;13.66;nan
4617;BME280;2321;42.704;23.384;2023-04-27T12:43:19;95307.97;;;13.74;nan
4617;BME280;2321;42.704;23.384;2023-04-27T12:45:47;95307.72;;;13.82;nan
4617;BME280;2321;42.704;23.384;2023-04-27T12:48:14;95315.31;;;13.86;nan
4617;BME280;2321;42.704;23.384;2023-04-27T12:50:41;95313.09;;;13.82;nan
4617;BME280;2321;42.704;23.384;2023-04-27T12:53:08;95312.09;;;13.77;nan
4617;BME280;2321;42.704;23.384;2023-04-27T12:55:35;95316.00;;;13.74;nan
4617;BME280;2321;42.704;23.384;2023-04-27T12:58:02;95315.78;;;13.76;nan
4617;BME280;2321;42.704;23.384;2023-04-27T13:00:30;95309.19;;;13.78;nan
4617;BME280;2321;42.704;23.384;2023-04-27T13:03:00;95310.78;;;13.86;nan
4617;BME280;2321;42.704;23.384;2023-04-27T13:05:26;95305.38;;;13.93;nan
4617;BME280;2321;42.704;23.384;2023-04-27T13:07:53;95300.38;;;14.03;nan
4617;BME280;2321;42.704;23.384;2023-04-27T13:10:20;95300.53;;;14.09;nan
4617;BME280;2321;42.704;23.384;2023-04-27T13:12:47;95300.78;;;14.07;nan
4617;BME280;2321;42.704;23.384;2023-04-27T13:15:14;95301.22;;;14.04;nan
4617;BME280;2321;42.704;23.384;2023-04-27T13:17:41;95302.84;;;14.05;nan
4617;BME280;2321;42.704;23.384;2023-04-27T13:20:10;95300.38;;;14.03;nan
4617;BME280;2321;42.704;23.384;2023-04-27T13:22:37;95300.59;;;14.02;nan
4617;BME280;2321;42.704;23.384;2023-04-27T13:25:05;95300.84;;;13.93;nan
4617;BME280;2321;42.704;23.384;2023-04-27T13:27:33;95290.75;;;13.96;nan
4617;BME280;2321;42.704;23.384;2023-04-27T13:30:00;95295.03;;;14.03;nan
4617;BME280;2321;42.704;23.384;2023-04-27T13:32:27;95295.44;;;14.07;nan
4617;BME280;2321;42.704;23.384;2023-04-27T13:34:54;95295.22;;;14.02;nan
4617;BME280;2321;42.704;23.384;2023-04-27T13:37:22;95297.31;;;14.00;nan
4617;BME280;2321;42.704;23.384;2023-04-27T13:39:49;95297.59;;;13.91;nan
4617;BME280;2321;42.704;23.384;2023-04-27T13:42:16;95314.09;;;13.81;nan
4617;BME280;2321;42.704;23.384;2023-04-27T13:44:43;95312.09;;;13.77;nan